Raven, Kentucky
Current Conditions -  °F | °C
As of 2:35 PM on Thursday 23 Oct 2014 (Local Time) from KPBX Reporting Station
Overcast Overcast  
Wind Chill: 52°   Ceiling: 2900
Heat Index: 52°   Visibility: 10mi
Dew Point: 40°   Wind: 0mph
Humidity: 64%   Direction: NA
Pressure: 30.16"   Gusts: NA
Location:  37.41°N, 82.8°W
Report Text: KPBX 231835Z AUTO 00000KT 10SM OVC029 11/04 A3016 RMK AO2 T01100044
Loading
Personal Weather Stations






























Interactive Weather Map New forecast layout! Learn more

10-Day Weather Forecast

Advertisements
Track Severe Weather on mobile